createdAt,value
2022-07-25T00:01:22.113Z,21301.81
2022-07-25T00:03:51.730Z,21242.84
2022-07-25T00:06:19.988Z,21220.47
2022-07-25T00:08:47.969Z,21265.22
2022-07-25T00:11:16.102Z,21228.63
2022-07-25T00:13:44.116Z,21240.81
2022-07-25T00:16:13.646Z,21192.03
2022-07-25T00:18:42.145Z,21212.34
2022-07-25T00:21:10.385Z,21204.22
2022-07-25T00:23:38.443Z,21212.34
2022-07-25T00:26:06.870Z,21179.81
2022-07-25T00:28:35.061Z,21165.59
2022-07-25T00:31:03.345Z,21179.81
2022-07-25T00:33:33.018Z,21208.28
2022-07-25T00:36:01.278Z,21200.16
2022-07-25T00:38:29.354Z,21206.25
2022-07-25T00:40:57.335Z,21167.63
2022-07-25T00:43:25.390Z,21159.50
2022-07-25T00:45:53.414Z,21179.81
2022-07-25T00:48:21.493Z,21185.91
2022-07-25T00:50:50.886Z,21153.41
2022-07-25T00:53:19.906Z,21139.16
2022-07-25T00:55:48.779Z,21204.22
2022-07-25T00:58:18.808Z,21155.44
2022-07-25T01:00:47.159Z,21131.03
2022-07-25T01:03:16.273Z,21135.09
2022-07-25T01:05:50.225Z,21161.53
2022-07-25T01:08:23.450Z,21145.25
2022-07-25T01:10:51.756Z,21135.09
2022-07-25T01:13:19.829Z,21120.88
2022-07-25T01:15:49.159Z,21106.63
2022-07-25T01:18:17.310Z,21122.91
2022-07-25T01:20:47.206Z,21116.78
2022-07-25T01:23:15.280Z,21147.28
2022-07-25T01:25:43.545Z,21133.06
2022-07-25T01:28:11.677Z,21143.22
2022-07-25T01:30:39.930Z,21141.19
2022-07-25T01:33:08.039Z,21120.88
2022-07-25T01:35:41.501Z,21161.53
2022-07-25T01:38:13.704Z,21135.09
2022-07-25T01:40:42.941Z,21090.38
2022-07-25T01:43:12.255Z,21155.44
2022-07-25T01:45:40.354Z,21126.97
2022-07-25T01:48:09.122Z,21120.88
2022-07-25T01:50:37.222Z,21096.47
2022-07-25T01:53:05.581Z,21116.78
2022-07-25T01:55:34.988Z,21122.91
2022-07-25T01:58:03.156Z,21080.19
2022-07-25T02:00:31.316Z,21088.34
2022-07-25T02:03:28.472Z,21063.94
2022-07-25T02:05:56.575Z,21043.59
2022-07-25T02:08:24.786Z,21055.81
2022-07-25T02:10:54.388Z,21055.81
2022-07-25T02:13:22.733Z,21082.25
2022-07-25T02:15:51.187Z,21057.84
2022-07-25T02:18:19.274Z,21088.34
2022-07-25T02:20:47.749Z,21065.97
2022-07-25T02:23:15.795Z,21025.31
2022-07-25T02:25:44.125Z,21065.97
2022-07-25T02:28:13.824Z,21057.84
2022-07-25T02:30:41.885Z,21065.97
2022-07-25T02:33:10.006Z,21027.34
2022-07-25T02:35:37.994Z,21041.56
2022-07-25T02:38:06.044Z,21023.28
2022-07-25T02:40:34.421Z,21021.25
2022-07-25T02:43:02.649Z,21013.13
2022-07-25T02:45:32.077Z,21013.13
2022-07-25T02:48:02.346Z,20976.53
2022-07-25T02:50:30.371Z,21017.19
2022-07-25T02:52:58.430Z,20992.78
2022-07-25T02:55:26.656Z,21004.97
2022-07-25T02:57:54.852Z,20974.50
2022-07-25T03:00:23.945Z,21013.13
2022-07-25T03:02:53.393Z,20996.84
2022-07-25T03:05:21.701Z,21000.91
2022-07-25T03:07:49.737Z,20988.72
2022-07-25T03:10:17.914Z,20976.53
2022-07-25T03:12:46.806Z,21023.28
2022-07-25T03:15:15.693Z,21004.97
2022-07-25T03:17:43.988Z,20998.88
2022-07-25T03:20:14.178Z,21011.09
2022-07-25T03:22:42.313Z,20986.69
2022-07-25T03:25:15.603Z,20964.31
2022-07-25T03:27:50.648Z,20990.75
2022-07-25T03:30:18.913Z,21023.28
2022-07-25T03:32:47.736Z,20950.09
2022-07-25T03:35:17.158Z,20982.63
2022-07-25T03:37:45.557Z,20968.38
2022-07-25T03:40:15.392Z,20992.78
2022-07-25T03:42:44.429Z,20982.63
2022-07-25T03:45:12.768Z,20980.59
2022-07-25T03:47:40.836Z,20996.84
2022-07-25T03:50:09.995Z,20952.13
2022-07-25T03:52:39.488Z,20937.91
2022-07-25T03:55:09.486Z,20968.38
2022-07-25T03:57:37.645Z,20956.19
2022-07-25T04:00:09.528Z,20994.81
2022-07-25T04:02:38.490Z,20990.75
2022-07-25T04:05:08.838Z,20998.88
2022-07-25T04:07:39.216Z,21009.03
2022-07-25T04:10:10.113Z,21002.94
2022-07-25T04:12:38.908Z,21017.19
2022-07-25T04:15:08.421Z,20968.38
2022-07-25T04:17:37.916Z,21017.19
2022-07-25T04:20:09.079Z,21045.63
2022-07-25T04:22:37.039Z,20988.72
2022-07-25T04:27:35.811Z,21004.97
2022-07-25T04:30:04.024Z,20982.63
2022-07-25T04:32:32.008Z,21029.38
2022-07-25T04:34:59.960Z,20992.78
2022-07-25T04:37:28.085Z,21004.97
2022-07-25T04:39:56.134Z,21007.00
2022-07-25T04:42:25.438Z,21072.06
2022-07-25T04:44:53.447Z,21039.53
2022-07-25T04:47:21.420Z,21070.03
2022-07-25T04:49:49.424Z,21068.00
2022-07-25T04:52:17.395Z,21141.19
2022-07-25T04:54:45.394Z,21131.03
2022-07-25T04:57:13.410Z,21143.22
2022-07-25T04:59:44.236Z,21196.09
2022-07-25T05:02:12.400Z,21391.28
2022-07-25T05:04:45.161Z,21850.78
2022-07-25T05:07:13.629Z,22267.66
2022-07-25T05:09:41.740Z,22721.19
2022-07-25T05:12:10.410Z,22940.84
2022-07-25T05:14:38.558Z,23117.81
2022-07-25T05:17:08.076Z,23380.22
2022-07-25T05:19:36.126Z,23618.25
2022-07-25T05:22:05.345Z,23941.72
2022-07-25T05:24:35.030Z,23856.25
2022-07-25T05:27:04.081Z,23742.34
2022-07-25T05:29:32.901Z,23803.38
2022-07-25T05:32:01.136Z,23679.28
2022-07-25T05:34:30.543Z,23516.53
2022-07-25T05:36:58.567Z,23111.72
2022-07-25T05:39:26.596Z,22892.03
2022-07-25T05:41:54.656Z,22692.72
2022-07-25T05:44:22.747Z,22615.44
2022-07-25T05:46:50.782Z,22436.47
2022-07-25T05:49:18.830Z,22359.19
2022-07-25T05:51:48.188Z,22312.41
2022-07-25T05:54:16.344Z,22285.97
2022-07-25T05:56:44.414Z,22310.38
2022-07-25T05:59:12.431Z,22263.59
2022-07-25T06:01:40.535Z,22263.59
2022-07-25T06:04:09.107Z,22261.56
2022-07-25T06:06:37.380Z,22292.06
2022-07-25T06:09:07.973Z,22353.09
2022-07-25T06:11:36.301Z,22318.50
2022-07-25T06:14:19.414Z,22353.09
2022-07-25T06:16:47.929Z,22340.88
2022-07-25T06:19:16.090Z,22353.09
2022-07-25T06:21:44.109Z,22383.59
2022-07-25T06:24:13.485Z,22424.25
2022-07-25T06:26:41.601Z,22393.75
2022-07-25T06:29:09.757Z,22401.88
2022-07-25T06:31:37.803Z,22391.72
2022-07-25T06:34:06.164Z,22391.72
2022-07-25T06:36:34.366Z,22426.28
2022-07-25T06:39:03.274Z,22452.72
2022-07-25T06:41:32.595Z,22436.47
2022-07-25T06:44:00.642Z,22452.72
2022-07-25T06:46:31.351Z,22464.94
2022-07-25T06:48:59.673Z,22436.47
2022-07-25T06:51:27.770Z,22464.94
2022-07-25T06:53:56.653Z,22507.66
2022-07-25T06:56:24.722Z,22521.88
2022-07-25T06:58:54.655Z,22527.97
2022-07-25T07:01:22.656Z,22546.28
2022-07-25T07:03:50.883Z,22517.81
2022-07-25T07:06:19.022Z,22554.41
2022-07-25T07:08:47.028Z,22566.63
2022-07-25T07:11:16.692Z,22611.38
2022-07-25T07:13:44.864Z,22627.63
2022-07-25T07:16:14.523Z,22647.97
2022-07-25T07:18:45.809Z,22599.16
2022-07-25T07:21:21.489Z,22615.44
2022-07-25T07:23:53.619Z,22546.28
2022-07-25T07:26:22.405Z,22550.34
2022-07-25T07:28:50.554Z,22509.69
2022-07-25T07:31:20.187Z,22489.34
2022-07-25T07:33:48.261Z,22599.16
2022-07-25T07:36:16.274Z,22568.66
2022-07-25T07:38:45.174Z,22595.09
2022-07-25T07:41:13.744Z,22609.34
2022-07-25T07:43:41.808Z,22645.94
2022-07-25T07:46:09.912Z,22672.38
2022-07-25T07:48:39.795Z,22721.19
2022-07-25T07:51:08.146Z,22652.03
2022-07-25T07:53:53.764Z,22696.78
2022-07-25T07:56:21.802Z,22698.81
2022-07-25T07:58:50.485Z,22660.19
2022-07-25T08:01:19.244Z,22757.81
2022-07-25T08:03:48.655Z,22788.31
2022-07-25T08:06:16.748Z,22812.72
2022-07-25T08:08:44.788Z,22810.69
2022-07-25T08:11:13.022Z,22879.84
2022-07-25T08:13:41.091Z,22912.38
2022-07-25T08:16:11.751Z,22892.03
2022-07-25T08:18:39.821Z,22890.00
2022-07-25T08:21:09.246Z,22920.53
2022-07-25T08:23:39.215Z,22995.78
2022-07-25T08:26:08.123Z,22989.69
2022-07-25T08:28:36.180Z,22973.41
2022-07-25T08:31:04.465Z,23052.72
2022-07-25T08:33:32.629Z,23062.91
2022-07-25T08:36:01.154Z,23054.75
2022-07-25T08:38:30.866Z,23075.09
2022-07-25T08:40:59.796Z,23101.53
2022-07-25T08:43:29.260Z,23144.25
2022-07-25T08:45:57.342Z,23174.78
2022-07-25T08:48:27.728Z,23205.28
2022-07-25T08:50:58.090Z,23311.06
2022-07-25T08:53:33.046Z,23363.94
2022-07-25T08:56:10.396Z,23368.03
2022-07-25T08:58:41.770Z,23290.72
2022-07-25T09:01:12.561Z,23307.00
2022-07-25T09:03:40.697Z,23363.94
2022-07-25T09:06:17.797Z,23437.19
2022-07-25T09:08:57.837Z,23427.00
2022-07-25T09:11:35.687Z,23471.78
2022-07-25T09:14:08.906Z,23429.03
2022-07-25T09:16:41.012Z,23498.22
2022-07-25T09:19:15.083Z,23591.78
2022-07-25T09:21:46.128Z,23542.97
2022-07-25T09:24:17.854Z,23579.59
2022-07-25T09:26:50.076Z,23646.72
2022-07-25T09:29:24.684Z,23616.19
2022-07-25T09:31:54.916Z,23626.38
2022-07-25T09:34:38.804Z,23591.78
2022-07-25T09:37:09.248Z,23642.66
2022-07-25T09:39:46.316Z,23616.19
2022-07-25T09:42:26.691Z,23636.53
2022-07-25T09:45:15.961Z,23774.88
2022-07-25T09:47:56.406Z,23805.41
2022-07-25T09:50:27.181Z,23795.22
2022-07-25T09:53:02.446Z,23831.84
2022-07-25T09:55:32.797Z,23805.41
2022-07-25T09:58:02.232Z,23825.75
2022-07-25T10:00:32.572Z,23811.50
2022-07-25T10:03:18.593Z,23868.47
2022-07-25T10:06:08.919Z,23970.19
2022-07-25T10:08:40.047Z,23972.22
2022-07-25T10:11:21.202Z,23968.16
2022-07-25T10:13:51.204Z,24053.63
2022-07-25T10:16:22.579Z,24073.97
2022-07-25T10:18:53.761Z,24057.69
2022-07-25T10:21:26.909Z,24002.75
2022-07-25T10:24:02.335Z,24049.53
2022-07-25T10:26:31.504Z,24041.41
2022-07-25T10:29:02.093Z,24100.41
2022-07-25T10:31:38.412Z,24041.41
2022-07-25T10:34:10.638Z,24039.38
2022-07-25T10:36:46.719Z,24096.34
2022-07-25T10:39:17.002Z,24082.09
2022-07-25T10:41:52.342Z,24063.78
2022-07-25T10:44:22.542Z,24088.19
2022-07-25T10:46:50.626Z,24206.22
2022-07-25T10:49:29.070Z,24238.75
2022-07-25T10:52:03.107Z,24263.19
2022-07-25T10:54:36.556Z,24198.06
2022-07-25T10:57:07.203Z,24314.03
2022-07-25T10:59:39.777Z,24332.34
2022-07-25T11:02:16.277Z,24314.03
2022-07-25T11:04:45.827Z,24417.81
2022-07-25T11:07:17.674Z,24350.66
2022-07-25T11:09:56.553Z,24309.97
2022-07-25T11:12:25.006Z,24362.88
2022-07-25T11:15:02.200Z,24387.28
2022-07-25T11:17:30.609Z,24348.63
2022-07-25T11:20:01.355Z,24324.22
2022-07-25T11:22:31.994Z,24405.59
2022-07-25T11:25:01.291Z,24324.22
2022-07-25T11:27:32.084Z,24407.66
2022-07-25T11:30:09.881Z,24460.53
2022-07-25T11:32:43.181Z,24428.00
2022-07-25T11:35:13.063Z,24436.13
2022-07-25T11:37:44.677Z,24444.28
2022-07-25T11:40:16.257Z,24395.44
2022-07-25T11:42:47.525Z,24472.75
2022-07-25T11:45:22.163Z,24391.38
2022-07-25T11:48:03.397Z,24401.53
2022-07-25T11:50:33.578Z,24411.72
2022-07-25T11:53:03.171Z,24442.22
2022-07-25T11:55:36.314Z,24442.22
2022-07-25T11:58:06.912Z,24539.91
2022-07-25T12:00:44.876Z,24617.22
2022-07-25T12:03:19.393Z,24666.06
2022-07-25T12:05:49.748Z,24686.41
2022-07-25T12:08:20.640Z,24570.44
2022-07-25T12:10:51.299Z,24623.34
2022-07-25T12:13:24.979Z,24596.88
2022-07-25T12:15:55.116Z,24584.66
2022-07-25T12:18:23.256Z,24625.38
2022-07-25T12:20:51.288Z,24639.63
2022-07-25T12:23:21.653Z,24716.94
2022-07-25T12:25:49.885Z,24659.97
2022-07-25T12:28:18.055Z,24641.66
2022-07-25T12:30:54.375Z,24749.50
2022-07-25T12:33:25.886Z,24745.44
2022-07-25T12:35:54.053Z,24832.94
2022-07-25T12:38:22.093Z,24814.63
2022-07-25T12:40:50.415Z,24684.38
2022-07-25T12:43:19.073Z,24755.59
2022-07-25T12:45:47.225Z,24845.13
2022-07-25T12:48:16.006Z,24773.91
2022-07-25T12:50:46.133Z,24837.00
2022-07-25T12:53:14.487Z,24928.56
2022-07-25T12:55:42.577Z,24904.16
2022-07-25T12:58:11.493Z,24953.00
2022-07-25T13:00:39.581Z,24977.41
2022-07-25T13:03:07.630Z,25109.69
2022-07-25T13:05:35.703Z,25154.47
2022-07-25T13:08:07.360Z,25258.25
2022-07-25T13:10:35.328Z,25252.16
2022-07-25T13:13:03.677Z,25323.38
2022-07-25T13:15:31.715Z,25396.66
2022-07-25T13:17:59.763Z,25374.28
2022-07-25T13:20:28.509Z,25484.19
2022-07-25T13:22:56.691Z,25547.28
2022-07-25T13:25:26.071Z,25551.34
2022-07-25T13:27:54.225Z,25535.06
2022-07-25T13:30:22.394Z,25545.25
2022-07-25T13:32:50.384Z,25408.88
2022-07-25T13:35:20.755Z,25414.97
2022-07-25T13:37:49.593Z,25435.31
2022-07-25T13:40:17.778Z,25730.47
2022-07-25T13:42:48.379Z,25677.53
2022-07-25T13:45:16.540Z,25563.56
2022-07-25T13:47:44.568Z,25734.53
2022-07-25T13:50:12.745Z,25742.66
2022-07-25T13:52:40.827Z,25750.81
2022-07-25T13:55:10.374Z,25730.47
2022-07-25T13:57:38.431Z,25710.09
2022-07-25T14:00:09.988Z,25557.44
2022-07-25T14:02:38.163Z,25659.22
2022-07-25T14:05:07.157Z,25561.53
2022-07-25T14:07:36.826Z,25567.63
2022-07-25T14:10:08.342Z,25575.75
2022-07-25T14:12:39.402Z,25604.25
2022-07-25T14:15:10.698Z,25537.09
2022-07-25T14:17:39.217Z,25469.94
2022-07-25T14:20:09.417Z,25508.59
2022-07-25T14:22:38.454Z,25632.75
2022-07-25T14:25:07.559Z,25620.53
2022-07-25T14:27:36.193Z,25642.94
2022-07-25T14:30:04.857Z,25706.03
2022-07-25T14:32:34.732Z,25844.44
2022-07-25T14:35:02.977Z,25779.31
2022-07-25T14:37:31.640Z,25805.78
2022-07-25T14:39:59.870Z,25667.34
2022-07-25T14:42:28.234Z,25555.41
2022-07-25T14:44:56.380Z,25431.25
2022-07-25T14:47:26.677Z,25303.03
2022-07-25T14:49:56.792Z,25150.41
2022-07-25T14:52:24.837Z,25134.13
2022-07-25T14:54:52.974Z,25187.03
2022-07-25T14:57:21.035Z,25103.59
2022-07-25T14:59:49.066Z,24977.41
2022-07-25T15:02:17.105Z,24926.53
2022-07-25T15:04:45.155Z,24928.56
2022-07-25T15:07:14.629Z,24950.97
2022-07-25T15:09:42.738Z,24953.00
2022-07-25T15:12:16.142Z,24926.53
2022-07-25T15:14:44.613Z,24877.69
2022-07-25T15:17:13.791Z,24891.94
2022-07-25T15:19:41.891Z,24906.19
2022-07-25T15:22:09.989Z,24928.56
2022-07-25T15:25:16.850Z,24936.72
2022-07-25T15:27:27.971Z,24928.56
2022-07-25T15:29:55.970Z,24906.19
2022-07-25T15:32:23.992Z,24916.38
2022-07-25T15:34:52.047Z,24987.59
2022-07-25T15:37:20.288Z,25040.50
2022-07-25T15:39:49.705Z,25134.13
2022-07-25T15:42:17.926Z,25152.44
2022-07-25T15:44:45.941Z,25164.66
2022-07-25T15:47:14.591Z,25282.69
2022-07-25T15:49:43.411Z,25258.25
2022-07-25T15:52:11.442Z,25264.38
2022-07-25T15:54:39.502Z,25274.53
2022-07-25T15:57:08.953Z,25187.03
2022-07-25T15:59:37.360Z,25062.88
2022-07-25T16:02:09.345Z,24991.66
2022-07-25T16:04:37.370Z,24889.91
2022-07-25T16:07:05.484Z,24837.00
2022-07-25T16:09:33.626Z,24733.22
2022-07-25T16:12:02.066Z,24666.06
2022-07-25T16:14:31.467Z,24499.22
2022-07-25T16:16:59.486Z,24484.97
2022-07-25T16:19:27.524Z,24411.72
2022-07-25T16:21:57.155Z,24303.88
2022-07-25T16:24:25.643Z,24173.66
2022-07-25T16:26:53.974Z,23795.22
2022-07-25T16:29:21.988Z,22621.53
2022-07-25T16:31:51.642Z,22017.53
2022-07-25T16:34:19.682Z,21702.34
2022-07-25T16:36:47.709Z,21531.56
2022-07-25T16:39:16.020Z,21427.88
2022-07-25T16:41:45.450Z,21370.94
2022-07-25T16:44:13.420Z,21348.56
2022-07-25T16:46:42.351Z,21297.75
2022-07-25T16:49:13.387Z,21318.06
2022-07-25T16:51:41.530Z,21275.38
2022-07-25T16:54:09.579Z,21261.16
2022-07-25T16:56:37.778Z,21307.91
2022-07-25T16:59:07.423Z,21383.13
2022-07-25T17:01:36.598Z,21462.44
2022-07-25T17:04:05.534Z,21492.94
2022-07-25T17:06:35.012Z,21482.75
2022-07-25T17:09:03.119Z,21442.09
2022-07-25T17:11:31.235Z,21399.41
2022-07-25T17:14:00.500Z,21395.34
2022-07-25T17:16:28.711Z,21417.69
2022-07-25T17:18:56.955Z,21391.28
2022-07-25T17:21:25.061Z,21360.78
2022-07-25T17:23:56.443Z,21417.69
2022-07-25T17:26:24.707Z,21389.22
2022-07-25T17:28:53.587Z,21309.94
2022-07-25T17:31:21.836Z,21336.38
2022-07-25T17:33:49.842Z,21305.88
2022-07-25T17:36:20.287Z,21230.66
2022-07-25T17:38:48.350Z,21269.28
2022-07-25T17:41:18.058Z,21277.41
2022-07-25T17:43:46.062Z,21293.69
2022-07-25T17:46:14.200Z,21301.81
2022-07-25T17:48:42.885Z,21336.38
2022-07-25T17:51:10.911Z,21436.00
2022-07-25T17:53:39.134Z,21458.38
2022-07-25T17:56:08.766Z,21521.41
2022-07-25T17:58:38.531Z,21531.56
2022-07-25T18:01:10.294Z,21566.13
2022-07-25T18:03:39.218Z,21562.06
2022-07-25T18:06:07.385Z,21517.31
2022-07-25T18:08:35.994Z,21527.50
2022-07-25T18:11:04.353Z,21519.34
2022-07-25T18:13:32.356Z,21450.22
2022-07-25T18:16:02.030Z,21515.28
2022-07-25T18:18:31.582Z,21541.72
2022-07-25T18:20:59.730Z,21494.97
2022-07-25T18:23:28.747Z,21476.66
2022-07-25T18:25:57.133Z,21395.34
2022-07-25T18:28:25.413Z,21444.13
2022-07-25T18:30:54.997Z,21377.03
2022-07-25T18:33:25.536Z,21318.06
2022-07-25T18:35:53.721Z,21340.44
2022-07-25T18:38:21.756Z,21346.53
2022-07-25T18:41:06.526Z,21338.41
2022-07-25T18:43:37.865Z,21289.59
2022-07-25T18:46:06.209Z,21232.69
2022-07-25T18:48:37.526Z,21273.34
2022-07-25T18:51:05.756Z,21267.25
2022-07-25T18:53:33.944Z,21255.03
2022-07-25T18:56:03.216Z,21250.97
2022-07-25T18:58:31.344Z,21285.53
2022-07-25T19:00:59.476Z,21338.41
2022-07-25T19:03:27.701Z,21383.13
2022-07-25T19:06:02.827Z,21320.09
2022-07-25T19:08:33.279Z,21322.13
2022-07-25T19:11:01.458Z,21281.47
2022-07-25T19:16:17.802Z,21228.63
2022-07-25T19:18:46.175Z,21281.47
2022-07-25T19:21:16.707Z,21194.06
2022-07-25T19:23:50.551Z,21169.66
2022-07-25T19:26:20.346Z,21153.41
2022-07-25T19:28:48.524Z,21135.09
2022-07-25T19:31:16.722Z,21106.63
2022-07-25T19:33:46.029Z,21070.03
2022-07-25T19:36:15.540Z,21078.16
2022-07-25T19:38:43.793Z,21080.19
2022-07-25T19:41:11.902Z,21021.25
2022-07-25T19:43:40.033Z,21084.28
2022-07-25T19:46:08.060Z,21035.47
2022-07-25T19:48:36.206Z,21037.50
2022-07-25T19:51:04.386Z,21045.63
2022-07-25T19:53:33.978Z,21004.97
2022-07-25T19:56:02.095Z,20988.72
2022-07-25T19:58:31.484Z,20982.63
2022-07-25T20:01:01.279Z,21017.19
2022-07-25T20:03:30.428Z,20996.84
2022-07-25T20:05:58.689Z,21027.34
2022-07-25T20:08:26.751Z,20960.25
2022-07-25T20:10:56.168Z,20976.53
2022-07-25T20:13:24.201Z,20972.47
2022-07-25T20:15:52.209Z,20988.72
2022-07-25T20:18:20.277Z,20972.47
2022-07-25T20:20:48.432Z,20974.50
2022-07-25T20:23:16.739Z,20986.69
2022-07-25T20:25:44.865Z,20982.63
2022-07-25T20:28:14.259Z,21002.94
2022-07-25T20:30:42.694Z,20980.59
2022-07-25T20:33:11.368Z,20976.53
2022-07-25T20:35:39.833Z,20994.81
2022-07-25T20:38:09.281Z,20988.72
2022-07-25T20:40:43.855Z,20948.06
2022-07-25T20:43:17.736Z,21120.88
2022-07-25T20:45:47.470Z,21098.50
2022-07-25T20:48:16.050Z,21131.03
2022-07-25T20:50:44.822Z,21096.47
2022-07-25T20:53:13.333Z,21185.91
2022-07-25T20:55:41.305Z,21208.28
2022-07-25T20:58:09.352Z,21190.00
2022-07-25T21:00:38.777Z,21139.16
2022-07-25T21:03:08.245Z,21157.47
2022-07-25T21:05:39.325Z,21145.25
2022-07-25T21:08:08.048Z,21212.34
2022-07-25T21:10:36.147Z,21228.63
2022-07-25T21:13:04.171Z,21202.19
2022-07-25T21:15:32.494Z,21206.25
2022-07-25T21:18:02.504Z,21202.19
2022-07-25T21:20:30.765Z,21230.66
2022-07-25T21:22:58.908Z,21210.31
2022-07-25T21:25:27.246Z,21224.56
2022-07-25T21:27:55.252Z,21163.56
2022-07-25T21:30:23.282Z,21175.75
2022-07-25T21:32:51.330Z,21187.97
2022-07-25T21:35:20.680Z,21147.28
2022-07-25T21:37:48.719Z,21204.22
2022-07-25T21:40:16.922Z,21169.66
2022-07-25T21:42:45.244Z,21129.00
2022-07-25T21:45:14.150Z,21165.59
2022-07-25T21:47:42.235Z,21232.69
2022-07-25T21:50:29.078Z,21163.56
2022-07-25T21:52:58.764Z,21131.03
2022-07-25T21:55:27.001Z,21114.75
2022-07-25T21:57:55.166Z,21102.56
2022-07-25T22:00:23.448Z,21118.84
2022-07-25T22:02:51.848Z,21106.63
2022-07-25T22:05:20.612Z,21169.66
2022-07-25T22:07:49.685Z,21147.28
2022-07-25T22:10:22.115Z,21165.59
2022-07-25T22:12:50.569Z,21108.66
2022-07-25T22:15:18.743Z,21025.31
2022-07-25T22:17:49.068Z,21007.00
2022-07-25T22:20:18.995Z,21011.09
2022-07-25T22:22:47.616Z,21023.28
2022-07-25T22:25:18.379Z,20970.41
2022-07-25T22:27:46.566Z,20982.63
2022-07-25T22:30:19.231Z,21019.22
2022-07-25T22:32:48.434Z,20994.81
2022-07-25T22:35:16.728Z,21004.97
2022-07-25T22:37:45.284Z,20972.47
2022-07-25T22:40:14.636Z,20966.34
2022-07-25T22:42:44.325Z,21019.22
2022-07-25T22:45:12.852Z,21025.31
2022-07-25T22:47:40.953Z,21057.84
2022-07-25T22:50:11.009Z,20988.72
2022-07-25T22:52:39.195Z,20960.25
2022-07-25T22:55:08.317Z,20966.34
2022-07-25T22:57:37.757Z,20935.88
2022-07-25T23:00:12.535Z,20919.59
2022-07-25T23:02:41.280Z,20915.53
2022-07-25T23:05:10.822Z,20862.69
2022-07-25T23:07:39.240Z,20964.31
2022-07-25T23:10:08.959Z,20903.34
2022-07-25T23:12:37.111Z,20876.91
2022-07-25T23:15:08.418Z,20901.31
2022-07-25T23:17:36.472Z,20909.44
2022-07-25T23:20:06.790Z,20921.63
2022-07-25T23:22:34.940Z,20846.41
2022-07-25T23:25:03.178Z,20817.94
2022-07-25T23:27:33.239Z,20817.94
2022-07-25T23:30:04.387Z,20895.19
2022-07-25T23:32:34.448Z,20850.47
2022-07-25T23:35:02.821Z,20793.56
2022-07-25T23:37:30.911Z,20830.16
2022-07-25T23:39:58.955Z,20795.59
2022-07-25T23:42:27.074Z,20779.31
2022-07-25T23:44:57.507Z,20783.41
2022-07-25T23:47:39.411Z,20832.19
2022-07-25T23:50:12.467Z,20801.69
2022-07-25T23:52:40.873Z,20803.72
2022-07-25T23:55:10.587Z,20779.31
2022-07-25T23:57:38.911Z,20809.81
